sensor_id;sensor_type;location;lat;lon;timestamp;temperature;humidity
21246;DHT22;10781;50.928;4.440;2022-07-18T00:02:10;21.30;97.00
21246;DHT22;10781;50.928;4.440;2022-07-18T00:04:35;21.10;98.90
21246;DHT22;10781;50.928;4.440;2022-07-18T00:07:01;20.90;99.90
21246;DHT22;10781;50.928;4.440;2022-07-18T00:09:26;21.00;99.90
21246;DHT22;10781;50.928;4.440;2022-07-18T00:11:52;21.10;99.90
21246;DHT22;10781;50.928;4.440;2022-07-18T00:14:20;21.10;99.90
21246;DHT22;10781;50.928;4.440;2022-07-18T00:16:46;21.20;99.90
21246;DHT22;10781;50.928;4.440;2022-07-18T00:19:12;21.30;99.90
21246;DHT22;10781;50.928;4.440;2022-07-18T00:21:38;21.30;99.90
21246;DHT22;10781;50.928;4.440;2022-07-18T00:24:04;21.40;99.90
21246;DHT22;10781;50.928;4.440;2022-07-18T00:26:29;21.50;99.90
21246;DHT22;10781;50.928;4.440;2022-07-18T00:28:55;21.60;99.90
21246;DHT22;10781;50.928;4.440;2022-07-18T00:31:21;21.60;99.90
21246;DHT22;10781;50.928;4.440;2022-07-18T00:33:47;21.60;99.90
21246;DHT22;10781;50.928;4.440;2022-07-18T00:36:13;21.50;99.90
21246;DHT22;10781;50.928;4.440;2022-07-18T00:38:38;21.50;99.90
21246;DHT22;10781;50.928;4.440;2022-07-18T00:41:04;21.30;99.90
21246;DHT22;10781;50.928;4.440;2022-07-18T00:43:30;21.20;99.90
21246;DHT22;10781;50.928;4.440;2022-07-18T00:45:56;21.10;99.90
21246;DHT22;10781;50.928;4.440;2022-07-18T00:48:22;21.00;99.90
21246;DHT22;10781;50.928;4.440;2022-07-18T00:50:48;21.00;99.90
21246;DHT22;10781;50.928;4.440;2022-07-18T00:53:14;20.90;99.90
21246;DHT22;10781;50.928;4.440;2022-07-18T00:55:42;20.90;99.90
21246;DHT22;10781;50.928;4.440;2022-07-18T00:58:10;20.90;99.90
21246;DHT22;10781;50.928;4.440;2022-07-18T01:00:36;21.00;99.90
21246;DHT22;10781;50.928;4.440;2022-07-18T01:03:21;20.90;99.90
21246;DHT22;10781;50.928;4.440;2022-07-18T01:05:47;20.90;99.90
21246;DHT22;10781;50.928;4.440;2022-07-18T01:08:13;20.80;99.90
21246;DHT22;10781;50.928;4.440;2022-07-18T01:10:38;20.60;99.90
21246;DHT22;10781;50.928;4.440;2022-07-18T01:13:04;20.60;99.90
21246;DHT22;10781;50.928;4.440;2022-07-18T01:15:30;20.80;99.90
21246;DHT22;10781;50.928;4.440;2022-07-18T01:17:55;20.70;99.90
21246;DHT22;10781;50.928;4.440;2022-07-18T01:20:21;20.60;99.90
21246;DHT22;10781;50.928;4.440;2022-07-18T01:22:47;20.70;99.90
21246;DHT22;10781;50.928;4.440;2022-07-18T01:25:13;20.90;99.90
21246;DHT22;10781;50.928;4.440;2022-07-18T01:27:42;20.90;99.90
21246;DHT22;10781;50.928;4.440;2022-07-18T01:30:08;20.70;99.90
21246;DHT22;10781;50.928;4.440;2022-07-18T01:32:34;20.60;99.90
21246;DHT22;10781;50.928;4.440;2022-07-18T01:34:59;20.50;99.90
21246;DHT22;10781;50.928;4.440;2022-07-18T01:37:25;20.30;99.90
21246;DHT22;10781;50.928;4.440;2022-07-18T01:39:51;20.40;99.90
21246;DHT22;10781;50.928;4.440;2022-07-18T01:42:16;20.60;99.90
21246;DHT22;10781;50.928;4.440;2022-07-18T01:44:43;20.60;99.90
21246;DHT22;10781;50.928;4.440;2022-07-18T01:47:10;20.70;99.90
21246;DHT22;10781;50.928;4.440;2022-07-18T01:49:36;20.70;99.90
21246;DHT22;10781;50.928;4.440;2022-07-18T01:52:03;20.70;99.90
21246;DHT22;10781;50.928;4.440;2022-07-18T01:54:31;20.30;99.90
21246;DHT22;10781;50.928;4.440;2022-07-18T01:56:58;20.00;99.90
21246;DHT22;10781;50.928;4.440;2022-07-18T01:59:24;19.90;99.90
21246;DHT22;10781;50.928;4.440;2022-07-18T02:01:50;19.60;99.90
21246;DHT22;10781;50.928;4.440;2022-07-18T02:04:16;19.50;99.90
21246;DHT22;10781;50.928;4.440;2022-07-18T02:06:42;19.70;99.90
21246;DHT22;10781;50.928;4.440;2022-07-18T02:09:08;19.90;99.90
21246;DHT22;10781;50.928;4.440;2022-07-18T02:11:35;19.90;99.90
21246;DHT22;10781;50.928;4.440;2022-07-18T02:14:01;19.70;99.90
21246;DHT22;10781;50.928;4.440;2022-07-18T02:16:27;19.50;99.90
21246;DHT22;10781;50.928;4.440;2022-07-18T02:18:54;19.60;99.90
21246;DHT22;10781;50.928;4.440;2022-07-18T02:21:20;19.60;99.90
21246;DHT22;10781;50.928;4.440;2022-07-18T02:23:46;19.60;99.90
21246;DHT22;10781;50.928;4.440;2022-07-18T02:26:12;19.50;99.90
21246;DHT22;10781;50.928;4.440;2022-07-18T02:28:38;19.40;99.90
21246;DHT22;10781;50.928;4.440;2022-07-18T02:31:05;19.20;99.90
21246;DHT22;10781;50.928;4.440;2022-07-18T02:33:31;19.30;99.90
21246;DHT22;10781;50.928;4.440;2022-07-18T02:35:57;19.60;99.90
21246;DHT22;10781;50.928;4.440;2022-07-18T02:38:22;19.60;99.90
21246;DHT22;10781;50.928;4.440;2022-07-18T02:40:48;19.60;99.90
21246;DHT22;10781;50.928;4.440;2022-07-18T02:43:14;19.40;99.90
21246;DHT22;10781;50.928;4.440;2022-07-18T02:45:40;19.50;99.90
21246;DHT22;10781;50.928;4.440;2022-07-18T02:48:05;19.60;99.90
21246;DHT22;10781;50.928;4.440;2022-07-18T02:50:31;19.60;99.90
21246;DHT22;10781;50.928;4.440;2022-07-18T02:52:56;19.50;99.90
21246;DHT22;10781;50.928;4.440;2022-07-18T02:55:23;19.40;99.90
21246;DHT22;10781;50.928;4.440;2022-07-18T02:57:49;19.40;99.90
21246;DHT22;10781;50.928;4.440;2022-07-18T03:00:15;19.50;99.90
21246;DHT22;10781;50.928;4.440;2022-07-18T03:02:42;19.50;99.90
21246;DHT22;10781;50.928;4.440;2022-07-18T03:05:09;19.50;99.90
21246;DHT22;10781;50.928;4.440;2022-07-18T03:07:35;19.50;99.90
21246;DHT22;10781;50.928;4.440;2022-07-18T03:10:00;19.60;99.90
21246;DHT22;10781;50.928;4.440;2022-07-18T03:12:26;19.40;99.90
21246;DHT22;10781;50.928;4.440;2022-07-18T03:14:52;19.40;99.90
21246;DHT22;10781;50.928;4.440;2022-07-18T03:17:17;19.50;99.90
21246;DHT22;10781;50.928;4.440;2022-07-18T03:19:43;19.50;99.90
21246;DHT22;10781;50.928;4.440;2022-07-18T03:22:09;19.50;99.90
21246;DHT22;10781;50.928;4.440;2022-07-18T03:24:34;19.40;99.90
21246;DHT22;10781;50.928;4.440;2022-07-18T03:27:00;19.40;99.90
21246;DHT22;10781;50.928;4.440;2022-07-18T03:29:26;19.30;99.90
21246;DHT22;10781;50.928;4.440;2022-07-18T03:31:51;19.30;99.90
21246;DHT22;10781;50.928;4.440;2022-07-18T03:34:17;19.40;99.90
21246;DHT22;10781;50.928;4.440;2022-07-18T03:36:43;19.40;99.90
21246;DHT22;10781;50.928;4.440;2022-07-18T03:39:10;19.40;99.90
21246;DHT22;10781;50.928;4.440;2022-07-18T03:41:37;19.50;99.90
21246;DHT22;10781;50.928;4.440;2022-07-18T03:44:04;19.50;99.90
21246;DHT22;10781;50.928;4.440;2022-07-18T03:46:30;19.40;99.90
21246;DHT22;10781;50.928;4.440;2022-07-18T03:48:56;19.40;99.90
21246;DHT22;10781;50.928;4.440;2022-07-18T03:51:22;19.30;99.90
21246;DHT22;10781;50.928;4.440;2022-07-18T03:53:47;19.20;99.90
21246;DHT22;10781;50.928;4.440;2022-07-18T03:56:13;19.10;99.90
21246;DHT22;10781;50.928;4.440;2022-07-18T03:58:39;18.90;99.90
21246;DHT22;10781;50.928;4.440;2022-07-18T04:01:05;18.80;99.90
21246;DHT22;10781;50.928;4.440;2022-07-18T04:03:30;18.60;99.90
21246;DHT22;10781;50.928;4.440;2022-07-18T04:05:56;18.60;99.90
21246;DHT22;10781;50.928;4.440;2022-07-18T04:08:22;18.30;99.90
21246;DHT22;10781;50.928;4.440;2022-07-18T04:10:47;18.20;99.90
21246;DHT22;10781;50.928;4.440;2022-07-18T04:13:13;18.30;99.90
21246;DHT22;10781;50.928;4.440;2022-07-18T04:15:39;18.30;99.90
21246;DHT22;10781;50.928;4.440;2022-07-18T04:18:06;18.50;99.90
21246;DHT22;10781;50.928;4.440;2022-07-18T04:20:32;18.80;99.90
21246;DHT22;10781;50.928;4.440;2022-07-18T04:23:02;19.00;99.90
21246;DHT22;10781;50.928;4.440;2022-07-18T04:25:32;19.10;99.90
21246;DHT22;10781;50.928;4.440;2022-07-18T04:27:58;19.00;99.90
21246;DHT22;10781;50.928;4.440;2022-07-18T04:30:26;19.00;99.90
21246;DHT22;10781;50.928;4.440;2022-07-18T04:32:52;19.20;99.90
21246;DHT22;10781;50.928;4.440;2022-07-18T04:35:18;19.40;99.90
21246;DHT22;10781;50.928;4.440;2022-07-18T04:37:43;19.60;99.90
21246;DHT22;10781;50.928;4.440;2022-07-18T04:40:10;19.60;99.90
21246;DHT22;10781;50.928;4.440;2022-07-18T04:42:37;19.70;99.90
21246;DHT22;10781;50.928;4.440;2022-07-18T04:45:03;19.80;99.90
21246;DHT22;10781;50.928;4.440;2022-07-18T04:47:30;19.70;99.90
21246;DHT22;10781;50.928;4.440;2022-07-18T04:49:56;19.80;99.90
21246;DHT22;10781;50.928;4.440;2022-07-18T04:52:23;20.00;99.90
21246;DHT22;10781;50.928;4.440;2022-07-18T04:54:49;20.00;99.90
21246;DHT22;10781;50.928;4.440;2022-07-18T04:57:16;20.10;99.90
21246;DHT22;10781;50.928;4.440;2022-07-18T04:59:42;20.20;99.90
21246;DHT22;10781;50.928;4.440;2022-07-18T05:02:10;20.30;99.90
21246;DHT22;10781;50.928;4.440;2022-07-18T05:04:39;20.20;99.90
21246;DHT22;10781;50.928;4.440;2022-07-18T05:07:05;20.30;99.90
21246;DHT22;10781;50.928;4.440;2022-07-18T05:09:32;20.40;99.90
21246;DHT22;10781;50.928;4.440;2022-07-18T05:11:58;20.20;99.90
21246;DHT22;10781;50.928;4.440;2022-07-18T05:14:24;20.00;99.90
21246;DHT22;10781;50.928;4.440;2022-07-18T05:16:49;19.70;99.90
21246;DHT22;10781;50.928;4.440;2022-07-18T05:19:15;19.70;99.90
21246;DHT22;10781;50.928;4.440;2022-07-18T05:21:42;19.80;99.90
21246;DHT22;10781;50.928;4.440;2022-07-18T05:24:08;19.90;99.90
21246;DHT22;10781;50.928;4.440;2022-07-18T05:26:34;20.20;99.90
21246;DHT22;10781;50.928;4.440;2022-07-18T05:28:59;20.50;99.90
21246;DHT22;10781;50.928;4.440;2022-07-18T05:31:25;20.50;99.90
21246;DHT22;10781;50.928;4.440;2022-07-18T05:33:50;20.40;99.90
21246;DHT22;10781;50.928;4.440;2022-07-18T05:36:16;20.30;99.90
21246;DHT22;10781;50.928;4.440;2022-07-18T05:38:42;20.20;99.90
21246;DHT22;10781;50.928;4.440;2022-07-18T05:41:07;20.50;99.90
21246;DHT22;10781;50.928;4.440;2022-07-18T05:43:33;20.70;99.90
21246;DHT22;10781;50.928;4.440;2022-07-18T05:45:59;21.00;99.90
21246;DHT22;10781;50.928;4.440;2022-07-18T05:48:24;21.00;99.90
21246;DHT22;10781;50.928;4.440;2022-07-18T05:50:50;21.00;99.90
21246;DHT22;10781;50.928;4.440;2022-07-18T05:53:15;21.20;99.90
21246;DHT22;10781;50.928;4.440;2022-07-18T05:55:41;21.30;99.90
21246;DHT22;10781;50.928;4.440;2022-07-18T05:58:07;21.30;99.90
21246;DHT22;10781;50.928;4.440;2022-07-18T06:00:33;21.50;99.90
21246;DHT22;10781;50.928;4.440;2022-07-18T06:02:59;21.80;99.90
21246;DHT22;10781;50.928;4.440;2022-07-18T06:05:26;22.00;99.90
21246;DHT22;10781;50.928;4.440;2022-07-18T06:07:53;22.30;99.90
21246;DHT22;10781;50.928;4.440;2022-07-18T06:10:18;22.50;99.90
21246;DHT22;10781;50.928;4.440;2022-07-18T06:12:44;22.60;99.90
21246;DHT22;10781;50.928;4.440;2022-07-18T06:15:10;22.80;99.90
21246;DHT22;10781;50.928;4.440;2022-07-18T06:17:36;23.00;99.90
21246;DHT22;10781;50.928;4.440;2022-07-18T06:20:02;23.10;99.90
21246;DHT22;10781;50.928;4.440;2022-07-18T06:22:30;23.30;99.90
21246;DHT22;10781;50.928;4.440;2022-07-18T06:24:56;23.50;99.90
21246;DHT22;10781;50.928;4.440;2022-07-18T06:27:22;23.60;99.90
21246;DHT22;10781;50.928;4.440;2022-07-18T06:29:47;23.70;99.90
21246;DHT22;10781;50.928;4.440;2022-07-18T06:32:13;23.80;99.90
21246;DHT22;10781;50.928;4.440;2022-07-18T06:34:38;23.90;99.90
21246;DHT22;10781;50.928;4.440;2022-07-18T06:37:04;24.00;99.90
21246;DHT22;10781;50.928;4.440;2022-07-18T06:39:30;24.20;99.90
21246;DHT22;10781;50.928;4.440;2022-07-18T06:41:55;24.40;99.80
21246;DHT22;10781;50.928;4.440;2022-07-18T06:44:21;24.40;99.00
21246;DHT22;10781;50.928;4.440;2022-07-18T06:46:46;24.40;99.20
21246;DHT22;10781;50.928;4.440;2022-07-18T06:49:12;24.50;99.40
21246;DHT22;10781;50.928;4.440;2022-07-18T06:51:38;24.60;99.10
21246;DHT22;10781;50.928;4.440;2022-07-18T06:54:03;24.80;98.30
21246;DHT22;10781;50.928;4.440;2022-07-18T06:56:29;25.00;97.50
21246;DHT22;10781;50.928;4.440;2022-07-18T06:58:55;25.10;97.30
21246;DHT22;10781;50.928;4.440;2022-07-18T07:01:20;25.20;96.50
21246;DHT22;10781;50.928;4.440;2022-07-18T07:03:47;25.30;96.10
21246;DHT22;10781;50.928;4.440;2022-07-18T07:06:13;25.50;96.50
21246;DHT22;10781;50.928;4.440;2022-07-18T07:08:39;25.80;95.30
21246;DHT22;10781;50.928;4.440;2022-07-18T07:11:04;26.20;94.70
21246;DHT22;10781;50.928;4.440;2022-07-18T07:13:31;26.40;94.10
21246;DHT22;10781;50.928;4.440;2022-07-18T07:15:57;26.50;94.40
21246;DHT22;10781;50.928;4.440;2022-07-18T07:18:22;26.40;92.90
21246;DHT22;10781;50.928;4.440;2022-07-18T07:20:48;26.50;92.50
21246;DHT22;10781;50.928;4.440;2022-07-18T07:23:13;27.00;91.60
21246;DHT22;10781;50.928;4.440;2022-07-18T07:25:39;28.60;90.20
21246;DHT22;10781;50.928;4.440;2022-07-18T07:28:06;30.90;87.30
21246;DHT22;10781;50.928;4.440;2022-07-18T07:30:33;32.10;75.80
21246;DHT22;10781;50.928;4.440;2022-07-18T07:32:59;33.30;70.10
21246;DHT22;10781;50.928;4.440;2022-07-18T07:35:26;34.10;67.60
21246;DHT22;10781;50.928;4.440;2022-07-18T07:37:56;35.10;63.90
21246;DHT22;10781;50.928;4.440;2022-07-18T07:40:28;36.00;56.80
21246;DHT22;10781;50.928;4.440;2022-07-18T07:43:12;36.80;55.30
21246;DHT22;10781;50.928;4.440;2022-07-18T07:45:38;37.60;53.20
21246;DHT22;10781;50.928;4.440;2022-07-18T07:48:05;37.90;49.70
21246;DHT22;10781;50.928;4.440;2022-07-18T07:50:31;38.70;48.10
21246;DHT22;10781;50.928;4.440;2022-07-18T07:52:58;38.60;45.30
21246;DHT22;10781;50.928;4.440;2022-07-18T07:55:24;38.40;45.00
21246;DHT22;10781;50.928;4.440;2022-07-18T07:57:50;38.50;44.40
21246;DHT22;10781;50.928;4.440;2022-07-18T08:00:17;38.60;43.60
21246;DHT22;10781;50.928;4.440;2022-07-18T08:02:54;38.70;42.80
21246;DHT22;10781;50.928;4.440;2022-07-18T08:05:20;38.80;43.10
21246;DHT22;10781;50.928;4.440;2022-07-18T08:07:46;38.80;41.20
21246;DHT22;10781;50.928;4.440;2022-07-18T08:10:12;39.50;42.00
21246;DHT22;10781;50.928;4.440;2022-07-18T08:12:37;39.90;40.10
21246;DHT22;10781;50.928;4.440;2022-07-18T08:15:03;40.20;39.70
21246;DHT22;10781;50.928;4.440;2022-07-18T08:17:29;40.70;38.50
21246;DHT22;10781;50.928;4.440;2022-07-18T08:19:55;41.20;38.20
21246;DHT22;10781;50.928;4.440;2022-07-18T08:22:20;40.80;36.80
21246;DHT22;10781;50.928;4.440;2022-07-18T08:24:46;40.50;37.00
21246;DHT22;10781;50.928;4.440;2022-07-18T08:27:12;40.80;37.40
21246;DHT22;10781;50.928;4.440;2022-07-18T08:29:38;40.80;37.30
21246;DHT22;10781;50.928;4.440;2022-07-18T08:32:04;41.40;37.00
21246;DHT22;10781;50.928;4.440;2022-07-18T08:34:30;42.30;35.90
21246;DHT22;10781;50.928;4.440;2022-07-18T08:36:56;42.10;34.80
21246;DHT22;10781;50.928;4.440;2022-07-18T08:39:22;42.90;34.60
21246;DHT22;10781;50.928;4.440;2022-07-18T08:41:50;43.10;33.10
21246;DHT22;10781;50.928;4.440;2022-07-18T08:44:16;42.60;33.10
21246;DHT22;10781;50.928;4.440;2022-07-18T08:46:47;42.10;33.80
21246;DHT22;10781;50.928;4.440;2022-07-18T08:49:14;42.00;33.70
21246;DHT22;10781;50.928;4.440;2022-07-18T08:51:41;42.00;34.10
21246;DHT22;10781;50.928;4.440;2022-07-18T08:54:08;42.60;33.50
21246;DHT22;10781;50.928;4.440;2022-07-18T08:56:34;42.00;33.20
21246;DHT22;10781;50.928;4.440;2022-07-18T08:59:00;42.60;32.90
21246;DHT22;10781;50.928;4.440;2022-07-18T09:01:31;42.90;32.30
21246;DHT22;10781;50.928;4.440;2022-07-18T09:03:57;43.60;32.10
21246;DHT22;10781;50.928;4.440;2022-07-18T09:06:44;44.50;31.80
21246;DHT22;10781;50.928;4.440;2022-07-18T09:09:12;45.30;31.40
21246;DHT22;10781;50.928;4.440;2022-07-18T09:11:55;46.40;30.90
21246;DHT22;10781;50.928;4.440;2022-07-18T09:14:31;46.40;29.40
21246;DHT22;10781;50.928;4.440;2022-07-18T09:17:07;45.80;29.50
21246;DHT22;10781;50.928;4.440;2022-07-18T09:19:33;43.60;29.50
21246;DHT22;10781;50.928;4.440;2022-07-18T09:22:30;43.30;30.70
21246;DHT22;10781;50.928;4.440;2022-07-18T09:25:06;43.20;30.00
21246;DHT22;10781;50.928;4.440;2022-07-18T09:27:52;43.20;30.20
21246;DHT22;10781;50.928;4.440;2022-07-18T09:32:55;44.60;30.00
21246;DHT22;10781;50.928;4.440;2022-07-18T09:35:42;45.20;29.30
21246;DHT22;10781;50.928;4.440;2022-07-18T09:38:10;44.70;28.60
21246;DHT22;10781;50.928;4.440;2022-07-18T09:40:38;44.30;29.90
21246;DHT22;10781;50.928;4.440;2022-07-18T09:43:06;44.80;30.10
21246;DHT22;10781;50.928;4.440;2022-07-18T09:45:34;45.20;29.10
21246;DHT22;10781;50.928;4.440;2022-07-18T09:48:05;45.50;28.70
21246;DHT22;10781;50.928;4.440;2022-07-18T09:53:05;47.70;28.70
21246;DHT22;10781;50.928;4.440;2022-07-18T09:55:31;47.30;27.90
21246;DHT22;10781;50.928;4.440;2022-07-18T09:57:59;47.80;27.40
21246;DHT22;10781;50.928;4.440;2022-07-18T10:00:28;48.10;27.20
21246;DHT22;10781;50.928;4.440;2022-07-18T10:02:54;48.20;26.50
21246;DHT22;10781;50.928;4.440;2022-07-18T10:05:20;48.50;26.70
21246;DHT22;10781;50.928;4.440;2022-07-18T10:07:46;48.60;26.60
21246;DHT22;10781;50.928;4.440;2022-07-18T10:10:15;48.70;26.20
21246;DHT22;10781;50.928;4.440;2022-07-18T10:12:41;49.30;26.70
21246;DHT22;10781;50.928;4.440;2022-07-18T10:15:08;48.60;26.60
21246;DHT22;10781;50.928;4.440;2022-07-18T10:17:34;48.00;26.00
21246;DHT22;10781;50.928;4.440;2022-07-18T10:20:04;49.10;27.20
21246;DHT22;10781;50.928;4.440;2022-07-18T10:22:43;50.00;26.40
21246;DHT22;10781;50.928;4.440;2022-07-18T10:25:13;50.20;25.60
21246;DHT22;10781;50.928;4.440;2022-07-18T10:28:10;48.40;25.70
21246;DHT22;10781;50.928;4.440;2022-07-18T10:33:35;49.50;25.70
21246;DHT22;10781;50.928;4.440;2022-07-18T10:36:03;49.60;25.50
21246;DHT22;10781;50.928;4.440;2022-07-18T10:38:29;50.50;25.70
21246;DHT22;10781;50.928;4.440;2022-07-18T10:41:02;50.60;24.70
21246;DHT22;10781;50.928;4.440;2022-07-18T10:45:58;50.40;24.10
21246;DHT22;10781;50.928;4.440;2022-07-18T10:51:00;48.20;25.40
21246;DHT22;10781;50.928;4.440;2022-07-18T10:56:17;46.90;25.10
21246;DHT22;10781;50.928;4.440;2022-07-18T10:58:43;47.20;26.60
21246;DHT22;10781;50.928;4.440;2022-07-18T11:01:14;48.70;25.10
21246;DHT22;10781;50.928;4.440;2022-07-18T11:03:41;49.40;24.40
21246;DHT22;10781;50.928;4.440;2022-07-18T11:06:06;49.80;24.80
21246;DHT22;10781;50.928;4.440;2022-07-18T11:08:32;49.50;24.40
21246;DHT22;10781;50.928;4.440;2022-07-18T11:13:27;49.20;24.70
21246;DHT22;10781;50.928;4.440;2022-07-18T11:18:25;48.50;24.80
21246;DHT22;10781;50.928;4.440;2022-07-18T11:20:52;48.90;24.70
21246;DHT22;10781;50.928;4.440;2022-07-18T11:23:23;48.80;25.20
21246;DHT22;10781;50.928;4.440;2022-07-18T11:25:57;49.00;24.90
21246;DHT22;10781;50.928;4.440;2022-07-18T11:28:25;49.20;23.90
21246;DHT22;10781;50.928;4.440;2022-07-18T11:31:01;47.30;23.90
21246;DHT22;10781;50.928;4.440;2022-07-18T11:33:29;44.90;25.20
21246;DHT22;10781;50.928;4.440;2022-07-18T11:36:13;45.10;26.70
21246;DHT22;10781;50.928;4.440;2022-07-18T11:39:01;47.40;25.20
21246;DHT22;10781;50.928;4.440;2022-07-18T11:41:26;48.80;24.90
21246;DHT22;10781;50.928;4.440;2022-07-18T11:43:53;49.50;24.00
21246;DHT22;10781;50.928;4.440;2022-07-18T11:46:21;49.70;23.70
21246;DHT22;10781;50.928;4.440;2022-07-18T11:49:05;49.40;23.40
21246;DHT22;10781;50.928;4.440;2022-07-18T11:51:43;49.30;23.40
21246;DHT22;10781;50.928;4.440;2022-07-18T11:54:10;49.70;23.90
21246;DHT22;10781;50.928;4.440;2022-07-18T11:56:51;49.90;23.20
21246;DHT22;10781;50.928;4.440;2022-07-18T11:59:17;50.30;23.50
21246;DHT22;10781;50.928;4.440;2022-07-18T12:01:44;49.90;23.40
21246;DHT22;10781;50.928;4.440;2022-07-18T12:04:20;50.80;23.40
21246;DHT22;10781;50.928;4.440;2022-07-18T12:07:27;49.80;22.90
21246;DHT22;10781;50.928;4.440;2022-07-18T12:09:53;48.00;23.30
21246;DHT22;10781;50.928;4.440;2022-07-18T12:12:21;47.00;24.30
21246;DHT22;10781;50.928;4.440;2022-07-18T12:15:00;48.90;24.50
21246;DHT22;10781;50.928;4.440;2022-07-18T12:17:28;50.60;23.60
21246;DHT22;10781;50.928;4.440;2022-07-18T12:22:59;51.80;22.40
21246;DHT22;10781;50.928;4.440;2022-07-18T12:25:35;52.00;22.20
21246;DHT22;10781;50.928;4.440;2022-07-18T12:28:16;52.00;22.20
21246;DHT22;10781;50.928;4.440;2022-07-18T12:30:42;51.50;22.00
21246;DHT22;10781;50.928;4.440;2022-07-18T12:33:08;50.10;22.20
21246;DHT22;10781;50.928;4.440;2022-07-18T12:35:37;49.20;22.80
21246;DHT22;10781;50.928;4.440;2022-07-18T12:38:12;48.90;22.40
21246;DHT22;10781;50.928;4.440;2022-07-18T12:43:33;49.10;23.60
21246;DHT22;10781;50.928;4.440;2022-07-18T12:46:00;49.60;22.40
21246;DHT22;10781;50.928;4.440;2022-07-18T12:48:27;50.50;23.20
21246;DHT22;10781;50.928;4.440;2022-07-18T12:53:23;50.30;22.30
21246;DHT22;10781;50.928;4.440;2022-07-18T12:55:48;50.00;22.00
21246;DHT22;10781;50.928;4.440;2022-07-18T12:58:14;50.40;21.90
21246;DHT22;10781;50.928;4.440;2022-07-18T13:00:40;50.80;21.40
21246;DHT22;10781;50.928;4.440;2022-07-18T13:03:05;50.70;21.30
21246;DHT22;10781;50.928;4.440;2022-07-18T13:05:31;50.60;21.00
21246;DHT22;10781;50.928;4.440;2022-07-18T13:07:57;50.00;21.20
21246;DHT22;10781;50.928;4.440;2022-07-18T13:10:23;50.30;22.00
21246;DHT22;10781;50.928;4.440;2022-07-18T13:12:49;50.60;22.50
21246;DHT22;10781;50.928;4.440;2022-07-18T13:15:14;50.50;21.20
21246;DHT22;10781;50.928;4.440;2022-07-18T13:17:41;50.70;21.90
21246;DHT22;10781;50.928;4.440;2022-07-18T13:20:07;51.00;21.60
21246;DHT22;10781;50.928;4.440;2022-07-18T13:22:33;51.20;22.00
21246;DHT22;10781;50.928;4.440;2022-07-18T13:25:07;50.60;21.40
21246;DHT22;10781;50.928;4.440;2022-07-18T13:27:33;50.00;21.20
21246;DHT22;10781;50.928;4.440;2022-07-18T13:29:59;49.80;21.20
21246;DHT22;10781;50.928;4.440;2022-07-18T13:32:27;50.30;21.10
21246;DHT22;10781;50.928;4.440;2022-07-18T13:34:53;50.30;21.30
21246;DHT22;10781;50.928;4.440;2022-07-18T13:37:18;49.90;20.90
21246;DHT22;10781;50.928;4.440;2022-07-18T13:39:44;50.00;21.40
21246;DHT22;10781;50.928;4.440;2022-07-18T13:42:10;49.80;21.70
21246;DHT22;10781;50.928;4.440;2022-07-18T13:44:35;50.50;20.60
21246;DHT22;10781;50.928;4.440;2022-07-18T13:47:01;51.20;20.80
21246;DHT22;10781;50.928;4.440;2022-07-18T13:49:27;51.10;21.00
21246;DHT22;10781;50.928;4.440;2022-07-18T13:51:52;50.80;20.90
21246;DHT22;10781;50.928;4.440;2022-07-18T13:54:18;51.10;20.90
21246;DHT22;10781;50.928;4.440;2022-07-18T13:56:44;51.30;21.30
21246;DHT22;10781;50.928;4.440;2022-07-18T13:59:10;49.70;21.10
21246;DHT22;10781;50.928;4.440;2022-07-18T14:01:36;50.10;21.20
21246;DHT22;10781;50.928;4.440;2022-07-18T14:04:02;50.50;20.90
21246;DHT22;10781;50.928;4.440;2022-07-18T14:06:28;50.10;21.50
21246;DHT22;10781;50.928;4.440;2022-07-18T14:08:54;50.80;21.70
21246;DHT22;10781;50.928;4.440;2022-07-18T14:11:19;50.50;21.00
21246;DHT22;10781;50.928;4.440;2022-07-18T14:13:46;50.70;21.60
21246;DHT22;10781;50.928;4.440;2022-07-18T14:16:13;50.50;21.00
21246;DHT22;10781;50.928;4.440;2022-07-18T14:18:39;50.60;21.00
21246;DHT22;10781;50.928;4.440;2022-07-18T14:21:05;50.60;22.10
21246;DHT22;10781;50.928;4.440;2022-07-18T14:23:31;50.90;21.30
21246;DHT22;10781;50.928;4.440;2022-07-18T14:25:57;49.40;21.90
21246;DHT22;10781;50.928;4.440;2022-07-18T14:28:22;49.40;21.90
21246;DHT22;10781;50.928;4.440;2022-07-18T14:30:48;49.40;21.60
21246;DHT22;10781;50.928;4.440;2022-07-18T14:33:14;49.40;21.50
21246;DHT22;10781;50.928;4.440;2022-07-18T14:35:39;49.10;21.80
21246;DHT22;10781;50.928;4.440;2022-07-18T14:38:05;49.20;21.90
21246;DHT22;10781;50.928;4.440;2022-07-18T14:40:31;49.40;21.70
21246;DHT22;10781;50.928;4.440;2022-07-18T14:42:56;49.30;21.90
21246;DHT22;10781;50.928;4.440;2022-07-18T14:45:22;49.10;21.10
21246;DHT22;10781;50.928;4.440;2022-07-18T14:47:48;48.90;21.40
21246;DHT22;10781;50.928;4.440;2022-07-18T14:50:13;49.20;22.00
21246;DHT22;10781;50.928;4.440;2022-07-18T14:52:40;48.90;20.70
21246;DHT22;10781;50.928;4.440;2022-07-18T14:55:06;48.60;20.80
21246;DHT22;10781;50.928;4.440;2022-07-18T14:57:32;48.80;21.20
21246;DHT22;10781;50.928;4.440;2022-07-18T14:59:58;48.90;21.10
21246;DHT22;10781;50.928;4.440;2022-07-18T15:02:24;48.60;20.90
21246;DHT22;10781;50.928;4.440;2022-07-18T15:04:50;48.50;21.40
21246;DHT22;10781;50.928;4.440;2022-07-18T15:07:15;48.20;21.60
21246;DHT22;10781;50.928;4.440;2022-07-18T15:09:41;48.60;21.50
21246;DHT22;10781;50.928;4.440;2022-07-18T15:12:07;49.00;22.00
21246;DHT22;10781;50.928;4.440;2022-07-18T15:14:34;48.60;22.00
21246;DHT22;10781;50.928;4.440;2022-07-18T15:16:59;47.90;22.00
21246;DHT22;10781;50.928;4.440;2022-07-18T15:19:25;48.00;22.10
21246;DHT22;10781;50.928;4.440;2022-07-18T15:21:51;48.30;22.00
21246;DHT22;10781;50.928;4.440;2022-07-18T15:24:17;48.00;21.90
21246;DHT22;10781;50.928;4.440;2022-07-18T15:26:43;48.40;22.60
21246;DHT22;10781;50.928;4.440;2022-07-18T15:29:08;48.60;22.50
21246;DHT22;10781;50.928;4.440;2022-07-18T15:31:34;48.60;22.20
21246;DHT22;10781;50.928;4.440;2022-07-18T15:33:59;48.60;21.90
21246;DHT22;10781;50.928;4.440;2022-07-18T15:36:25;48.10;22.30
21246;DHT22;10781;50.928;4.440;2022-07-18T15:38:51;47.70;22.10
21246;DHT22;10781;50.928;4.440;2022-07-18T15:41:16;48.00;22.30
21246;DHT22;10781;50.928;4.440;2022-07-18T15:43:45;48.50;22.40
21246;DHT22;10781;50.928;4.440;2022-07-18T15:46:15;48.30;21.80
21246;DHT22;10781;50.928;4.440;2022-07-18T15:48:43;47.80;22.00
21246;DHT22;10781;50.928;4.440;2022-07-18T15:51:09;47.30;22.20
21246;DHT22;10781;50.928;4.440;2022-07-18T15:53:35;47.20;22.10
21246;DHT22;10781;50.928;4.440;2022-07-18T15:56:01;46.90;22.00
21246;DHT22;10781;50.928;4.440;2022-07-18T15:58:27;46.50;22.40
21246;DHT22;10781;50.928;4.440;2022-07-18T16:00:53;46.00;23.20